Charlottesville, VA (22904)

4:29 PM EDT on September 02, 2015 (GMT -0400)
Charlottesville 2W | | Change Station
CLOSE
Current Station
Personal Weather Station
Location: Charlottesville, VA
Elevation: 866 ft
Nearby Weather Stations

Elev 866 ft 38.03 °N, 78.52 °W | Updated 2 seconds ago

Partly Cloudy
Partly Cloudy
85.1 °F
Feels Like 89 °F
N
0.0
Wind Variable Wind from North
Gusts 0.0 mph

Today
High -- | Low -- °F
--% Chance of Precip.
Yesterday
High -- | Low -- °F
Precip. -- in
6:44 AM 7:42 PM
Waning Gibbous, 77% visible
Pressure 29.97 in
Visibility 8.0 miles
Clouds Few 7000 ft
Scattered Clouds 9000 ft
Mostly Cloudy 11000 ft
Heat Index 89 °F
Dew Point 70 °F
Humidity 60%
Rainfall 0.00 in
Snow Depth Not available.
UV 3 out of 12
Pollen 8.80 out of 12
Air Quality Not available.
Flu Activity Not available.
METAR KCHO 021953Z 35003KT 8SM FEW070 SCT090 BKN110 29/22 A3000 RMK AO2 LTG DSNT SW-N SLP149 T02890217
Pressure 29.97 in
Visibility 8.0 miles
Clouds Few 7000 ft
Scattered Clouds 9000 ft
Mostly Cloudy 11000 ft
Heat Index 89 °F
Dew Point 70 °F
Humidity 60%
Rainfall 0.00 in
Snow Depth Not available.
UV 3 out of 12
Pollen 8.80 out of 12
Air Quality Not available.
Flu Activity Not available.
METAR KCHO 021953Z 35003KT 8SM FEW070 SCT090 BKN110 29/22 A3000 RMK AO2 LTG DSNT SW-N SLP149 T02890217
Nowcast | as of 4:15 PM EDT on September 2, 2015

a strong thunderstorm will affect city of Waynesboro... southeastern Augusta...west central Albemarle and north central Nelson counties... At 415 PM EDT...a strong thunderstorm was over Waynesboro. The storm was nearly stationary. Winds in excess of 40 mph are possible with this storm. Locations impacted include... Waynesboro...Crimora...Afton...Stuarts Draft...Sherando...Crozet... Hermitage...Afton mountain...Fishersville...Lyndhurst...Greenfield and Greenwood. Lat...Lon 3804 7904 3820 7894 3815 7868 3791 7883 time...Mot...loc 2015z 295deg 4kt 3809 7891

×

10-Day Weather Forecast

×

Almanac

Astronomy

Sep. 02, 2015 Rise Set
Actual Time
Civil Twilight
Nautical Twilight
Astronomical Twilight
Moon
Length of Visible Light
Length of Day
Tomorrow will be .
, % of the Moon is Illuminated

Today's Extremes

State Highs State Lows

Community

WunderPhotos

Upload Photos

1,851,804 photos uploaded!

WunderBlogs® & News

Nearby

Air Quality

  Air Quality AQ Index Pollutant
Not available.

Snow Depth

Station Depth Elevation

Earthquake Activity

City Distance Mag. Time & Date
Minimum magnitude displayed is 2.5.

Coastal Water Temperatures

Place Temperature

Stations

Nearby Weather Stations

Station Location Temp. Windchill Dew Point Humidity Wind Precip. Elev Updated Type